Royal, AR

12:04 PM CST on February 07, 2016 (GMT -0600)
Pearcy, AR | | Change Station
CLOSE
Current Station
Personal Weather Station
Location: Pearcy, AR
Elevation: 545 ft
Nearby Weather Stations

Elev 545 ft 34.43 °N, 93.25 °W | Updated 8 seconds ago

Clear
Clear
56.8 °F
Feels Like 56.8 °F
N
10.3
Wind Variable Wind from SE
Gusts 21.3 mph

Today
High -- | Low -- °F
--% Chance of Precip.
Yesterday
High -- | Low -- °F
Precip. -- in
Pressure 30.17 in
Visibility 10.0 miles
Clouds Clear
Dew Point 34 °F
Humidity 42%
Rainfall 0.00 in
Snow Depth Not available.
7:06 AM 5:48 PM
Waning Crescent, 1% visible
METAR KHOT 071753Z AUTO 24011KT 10SM CLR 13/M03 A3016 RMK AO2 SLP214 T01281028 10128 21028 58023
Pressure 30.17 in
Visibility 10.0 miles
Clouds Clear
Dew Point 34 °F
Humidity 42%
Rainfall 0.00 in
Snow Depth Not available.
7:06 AM 5:48 PM
Waning Crescent, 1% visible
METAR KHOT 071753Z AUTO 24011KT 10SM CLR 13/M03 A3016 RMK AO2 SLP214 T01281028 10128 21028 58023

10-Day Weather Forecast

Almanac

Astronomy

Feb. 07, 2016 Rise Set
Actual Time
Civil Twilight
Nautical Twilight
Astronomical Twilight
Moon
Length of Visible Light
Length of Day
Tomorrow will be .
, % of the Moon is Illuminated

Today's Extremes

State Highs State Lows

Community

WunderPhotos

Upload Photos

1,891,263 photos uploaded!

WunderBlog® & News

Nearby

Air Quality

  Air Quality AQ Index Pollutant
Not available.

Snow Depth

Station Depth Elevation

Earthquake Activity

City Distance Mag. Time & Date
Minimum magnitude displayed is 2.5.

Coastal Water Temperatures

Place Temperature

Stations

Nearby Weather Stations

Station Location Temp. Windchill Dew Point Humidity Wind Precip. Elev Updated Type
                   

Watches & Warnings

There are currently no watches in effect.